sensor_id;sensor_type;location;lat;lon;timestamp;P1;durP1;ratioP1;P2;durP2;ratioP2
81229;SDS011;70701;44.452;18.652;2023-07-02T00:01:09;12.15;;;7.78;;
81229;SDS011;70701;44.452;18.652;2023-07-02T00:03:37;10.45;;;6.55;;
81229;SDS011;70701;44.452;18.652;2023-07-02T00:06:03;11.07;;;6.60;;
81229;SDS011;70701;44.452;18.652;2023-07-02T00:08:28;9.57;;;5.63;;
81229;SDS011;70701;44.452;18.652;2023-07-02T00:10:54;8.45;;;5.93;;
81229;SDS011;70701;44.452;18.652;2023-07-02T00:13:19;9.00;;;5.80;;
81229;SDS011;70701;44.452;18.652;2023-07-02T00:15:49;10.35;;;5.82;;
81229;SDS011;70701;44.452;18.652;2023-07-02T00:18:15;10.45;;;6.55;;
81229;SDS011;70701;44.452;18.652;2023-07-02T00:20:41;9.32;;;5.72;;
81229;SDS011;70701;44.452;18.652;2023-07-02T00:23:09;9.82;;;6.05;;
81229;SDS011;70701;44.452;18.652;2023-07-02T00:25:35;10.43;;;6.20;;
81229;SDS011;70701;44.452;18.652;2023-07-02T00:28:02;15.88;;;13.40;;
81229;SDS011;70701;44.452;18.652;2023-07-02T00:30:31;18.90;;;15.07;;
81229;SDS011;70701;44.452;18.652;2023-07-02T00:32:57;30.95;;;22.40;;
81229;SDS011;70701;44.452;18.652;2023-07-02T00:35:23;13.75;;;9.85;;
81229;SDS011;70701;44.452;18.652;2023-07-02T00:37:49;14.15;;;7.35;;
81229;SDS011;70701;44.452;18.652;2023-07-02T00:40:14;11.80;;;6.65;;
81229;SDS011;70701;44.452;18.652;2023-07-02T00:42:40;8.30;;;5.90;;
81229;SDS011;70701;44.452;18.652;2023-07-02T00:45:06;12.57;;;6.15;;
81229;SDS011;70701;44.452;18.652;2023-07-02T00:47:32;8.80;;;5.45;;
81229;SDS011;70701;44.452;18.652;2023-07-02T00:49:59;8.95;;;5.80;;
81229;SDS011;70701;44.452;18.652;2023-07-02T00:52:26;12.95;;;5.60;;
81229;SDS011;70701;44.452;18.652;2023-07-02T00:54:53;8.23;;;5.03;;
81229;SDS011;70701;44.452;18.652;2023-07-02T00:57:18;11.80;;;6.30;;
81229;SDS011;70701;44.452;18.652;2023-07-02T00:59:44;12.00;;;6.03;;
81229;SDS011;70701;44.452;18.652;2023-07-02T01:02:11;10.88;;;5.50;;
81229;SDS011;70701;44.452;18.652;2023-07-02T01:04:38;8.55;;;5.00;;
81229;SDS011;70701;44.452;18.652;2023-07-02T01:07:04;10.45;;;5.07;;
81229;SDS011;70701;44.452;18.652;2023-07-02T01:09:35;8.82;;;5.25;;
81229;SDS011;70701;44.452;18.652;2023-07-02T01:12:04;8.82;;;5.00;;
81229;SDS011;70701;44.452;18.652;2023-07-02T01:14:36;7.97;;;4.45;;
81229;SDS011;70701;44.452;18.652;2023-07-02T01:17:04;9.25;;;5.40;;
81229;SDS011;70701;44.452;18.652;2023-07-02T01:19:50;10.57;;;5.30;;
81229;SDS011;70701;44.452;18.652;2023-07-02T01:22:22;9.20;;;4.80;;
81229;SDS011;70701;44.452;18.652;2023-07-02T01:24:49;8.13;;;4.88;;
81229;SDS011;70701;44.452;18.652;2023-07-02T01:27:19;9.27;;;4.50;;
81229;SDS011;70701;44.452;18.652;2023-07-02T01:29:46;8.27;;;5.32;;
81229;SDS011;70701;44.452;18.652;2023-07-02T01:32:15;11.68;;;6.30;;
81229;SDS011;70701;44.452;18.652;2023-07-02T01:34:40;12.40;;;7.40;;
81229;SDS011;70701;44.452;18.652;2023-07-02T01:37:08;14.32;;;6.70;;
81229;SDS011;70701;44.452;18.652;2023-07-02T01:39:34;12.63;;;7.68;;
81229;SDS011;70701;44.452;18.652;2023-07-02T01:42:08;13.30;;;7.70;;
81229;SDS011;70701;44.452;18.652;2023-07-02T01:44:42;10.32;;;6.55;;
81229;SDS011;70701;44.452;18.652;2023-07-02T01:47:12;9.80;;;5.65;;
81229;SDS011;70701;44.452;18.652;2023-07-02T01:49:38;9.95;;;6.05;;
81229;SDS011;70701;44.452;18.652;2023-07-02T01:52:04;8.80;;;5.80;;
81229;SDS011;70701;44.452;18.652;2023-07-02T01:54:31;8.93;;;6.07;;
81229;SDS011;70701;44.452;18.652;2023-07-02T01:56:58;9.65;;;6.43;;
81229;SDS011;70701;44.452;18.652;2023-07-02T01:59:24;9.85;;;6.07;;
81229;SDS011;70701;44.452;18.652;2023-07-02T02:01:50;9.75;;;5.78;;
81229;SDS011;70701;44.452;18.652;2023-07-02T02:04:16;8.32;;;6.15;;
81229;SDS011;70701;44.452;18.652;2023-07-02T02:06:42;8.63;;;5.57;;
81229;SDS011;70701;44.452;18.652;2023-07-02T02:09:08;11.85;;;5.78;;
81229;SDS011;70701;44.452;18.652;2023-07-02T02:11:42;8.38;;;5.80;;
81229;SDS011;70701;44.452;18.652;2023-07-02T02:14:09;7.47;;;5.10;;
81229;SDS011;70701;44.452;18.652;2023-07-02T02:16:35;10.60;;;5.57;;
81229;SDS011;70701;44.452;18.652;2023-07-02T02:19:02;9.10;;;5.70;;
81229;SDS011;70701;44.452;18.652;2023-07-02T02:21:28;10.85;;;6.10;;
81229;SDS011;70701;44.452;18.652;2023-07-02T02:23:55;8.27;;;5.75;;
81229;SDS011;70701;44.452;18.652;2023-07-02T02:26:21;9.68;;;5.70;;
81229;SDS011;70701;44.452;18.652;2023-07-02T02:28:47;8.50;;;5.22;;
81229;SDS011;70701;44.452;18.652;2023-07-02T02:31:15;7.85;;;5.75;;
81229;SDS011;70701;44.452;18.652;2023-07-02T02:33:41;8.45;;;4.90;;
81229;SDS011;70701;44.452;18.652;2023-07-02T02:36:06;9.05;;;5.68;;
81229;SDS011;70701;44.452;18.652;2023-07-02T02:38:32;9.35;;;5.80;;
81229;SDS011;70701;44.452;18.652;2023-07-02T02:41:00;11.30;;;6.50;;
81229;SDS011;70701;44.452;18.652;2023-07-02T02:43:31;9.27;;;6.57;;
81229;SDS011;70701;44.452;18.652;2023-07-02T02:45:57;10.35;;;6.85;;
81229;SDS011;70701;44.452;18.652;2023-07-02T02:48:23;10.45;;;6.70;;
81229;SDS011;70701;44.452;18.652;2023-07-02T02:50:49;11.20;;;6.43;;
81229;SDS011;70701;44.452;18.652;2023-07-02T02:53:14;8.70;;;5.82;;
81229;SDS011;70701;44.452;18.652;2023-07-02T02:55:40;9.13;;;5.70;;
81229;SDS011;70701;44.452;18.652;2023-07-02T02:58:06;10.02;;;6.22;;
81229;SDS011;70701;44.452;18.652;2023-07-02T03:00:31;8.95;;;5.50;;
81229;SDS011;70701;44.452;18.652;2023-07-02T03:02:58;8.80;;;6.47;;
81229;SDS011;70701;44.452;18.652;2023-07-02T03:05:23;10.05;;;6.65;;
81229;SDS011;70701;44.452;18.652;2023-07-02T03:07:50;9.73;;;6.63;;
81229;SDS011;70701;44.452;18.652;2023-07-02T03:10:16;10.90;;;6.95;;
81229;SDS011;70701;44.452;18.652;2023-07-02T03:12:42;10.68;;;6.40;;
81229;SDS011;70701;44.452;18.652;2023-07-02T03:15:08;11.88;;;6.75;;
81229;SDS011;70701;44.452;18.652;2023-07-02T03:17:34;11.07;;;7.10;;
81229;SDS011;70701;44.452;18.652;2023-07-02T03:20:00;12.57;;;7.20;;
81229;SDS011;70701;44.452;18.652;2023-07-02T03:22:26;10.40;;;6.95;;
81229;SDS011;70701;44.452;18.652;2023-07-02T03:24:51;11.52;;;7.25;;
81229;SDS011;70701;44.452;18.652;2023-07-02T03:27:17;10.68;;;7.55;;
81229;SDS011;70701;44.452;18.652;2023-07-02T03:29:43;11.45;;;7.80;;
81229;SDS011;70701;44.452;18.652;2023-07-02T03:32:08;9.32;;;6.53;;
81229;SDS011;70701;44.452;18.652;2023-07-02T03:34:34;11.38;;;7.28;;
81229;SDS011;70701;44.452;18.652;2023-07-02T03:36:59;14.15;;;6.93;;
81229;SDS011;70701;44.452;18.652;2023-07-02T03:39:25;9.68;;;5.88;;
81229;SDS011;70701;44.452;18.652;2023-07-02T03:41:50;10.50;;;6.63;;
81229;SDS011;70701;44.452;18.652;2023-07-02T03:44:16;10.25;;;5.82;;
81229;SDS011;70701;44.452;18.652;2023-07-02T03:46:42;8.52;;;5.53;;
81229;SDS011;70701;44.452;18.652;2023-07-02T03:49:08;9.82;;;5.55;;
81229;SDS011;70701;44.452;18.652;2023-07-02T03:51:34;12.15;;;6.75;;
81229;SDS011;70701;44.452;18.652;2023-07-02T03:53:59;9.50;;;6.03;;
81229;SDS011;70701;44.452;18.652;2023-07-02T03:56:25;7.63;;;4.90;;
81229;SDS011;70701;44.452;18.652;2023-07-02T03:58:51;9.60;;;5.20;;
81229;SDS011;70701;44.452;18.652;2023-07-02T04:01:17;9.48;;;5.68;;
81229;SDS011;70701;44.452;18.652;2023-07-02T04:03:49;9.85;;;5.75;;
81229;SDS011;70701;44.452;18.652;2023-07-02T04:06:16;11.43;;;6.50;;
81229;SDS011;70701;44.452;18.652;2023-07-02T04:08:42;10.05;;;5.93;;
81229;SDS011;70701;44.452;18.652;2023-07-02T04:11:08;10.98;;;6.15;;
81229;SDS011;70701;44.452;18.652;2023-07-02T04:13:34;14.40;;;6.95;;
81229;SDS011;70701;44.452;18.652;2023-07-02T04:16:00;10.52;;;6.05;;
81229;SDS011;70701;44.452;18.652;2023-07-02T04:18:26;12.65;;;8.15;;
81229;SDS011;70701;44.452;18.652;2023-07-02T04:20:51;16.65;;;8.73;;
81229;SDS011;70701;44.452;18.652;2023-07-02T04:23:17;13.68;;;8.40;;
81229;SDS011;70701;44.452;18.652;2023-07-02T04:25:43;16.70;;;9.10;;
81229;SDS011;70701;44.452;18.652;2023-07-02T04:28:09;15.95;;;9.23;;
81229;SDS011;70701;44.452;18.652;2023-07-02T04:30:34;14.48;;;9.45;;
81229;SDS011;70701;44.452;18.652;2023-07-02T04:33:00;15.38;;;8.45;;
81229;SDS011;70701;44.452;18.652;2023-07-02T04:35:26;16.35;;;9.75;;
81229;SDS011;70701;44.452;18.652;2023-07-02T04:37:51;14.13;;;8.70;;
81229;SDS011;70701;44.452;18.652;2023-07-02T04:40:17;16.10;;;8.57;;
81229;SDS011;70701;44.452;18.652;2023-07-02T04:42:43;14.02;;;9.27;;
81229;SDS011;70701;44.452;18.652;2023-07-02T04:45:12;12.82;;;8.50;;
81229;SDS011;70701;44.452;18.652;2023-07-02T04:47:41;13.95;;;8.88;;
81229;SDS011;70701;44.452;18.652;2023-07-02T04:50:08;15.45;;;9.02;;
81229;SDS011;70701;44.452;18.652;2023-07-02T04:52:52;14.95;;;8.98;;
81229;SDS011;70701;44.452;18.652;2023-07-02T04:55:18;14.93;;;8.95;;
81229;SDS011;70701;44.452;18.652;2023-07-02T04:57:43;13.00;;;8.80;;
81229;SDS011;70701;44.452;18.652;2023-07-02T05:00:09;13.43;;;8.52;;
81229;SDS011;70701;44.452;18.652;2023-07-02T05:02:36;15.00;;;9.40;;
81229;SDS011;70701;44.452;18.652;2023-07-02T05:05:01;16.27;;;9.35;;
81229;SDS011;70701;44.452;18.652;2023-07-02T05:07:27;17.98;;;9.48;;
81229;SDS011;70701;44.452;18.652;2023-07-02T05:09:52;16.05;;;10.43;;
81229;SDS011;70701;44.452;18.652;2023-07-02T05:12:18;18.85;;;11.48;;
81229;SDS011;70701;44.452;18.652;2023-07-02T05:14:45;19.30;;;11.40;;
81229;SDS011;70701;44.452;18.652;2023-07-02T05:17:13;19.02;;;12.23;;
81229;SDS011;70701;44.452;18.652;2023-07-02T05:19:43;20.05;;;12.00;;
81229;SDS011;70701;44.452;18.652;2023-07-02T05:22:09;26.20;;;13.45;;
81229;SDS011;70701;44.452;18.652;2023-07-02T05:24:35;22.95;;;12.48;;
81229;SDS011;70701;44.452;18.652;2023-07-02T05:27:01;22.60;;;14.20;;
81229;SDS011;70701;44.452;18.652;2023-07-02T05:29:26;28.35;;;16.15;;
81229;SDS011;70701;44.452;18.652;2023-07-02T05:31:52;27.17;;;15.70;;
81229;SDS011;70701;44.452;18.652;2023-07-02T05:34:18;24.88;;;15.48;;
81229;SDS011;70701;44.452;18.652;2023-07-02T05:36:43;27.73;;;16.33;;
81229;SDS011;70701;44.452;18.652;2023-07-02T05:39:09;24.00;;;14.10;;
81229;SDS011;70701;44.452;18.652;2023-07-02T05:41:34;23.05;;;13.25;;
81229;SDS011;70701;44.452;18.652;2023-07-02T05:44:00;20.55;;;12.10;;
81229;SDS011;70701;44.452;18.652;2023-07-02T05:46:26;17.13;;;11.20;;
81229;SDS011;70701;44.452;18.652;2023-07-02T05:48:51;15.73;;;10.02;;
81229;SDS011;70701;44.452;18.652;2023-07-02T05:51:22;18.00;;;10.90;;
81229;SDS011;70701;44.452;18.652;2023-07-02T05:53:49;15.75;;;10.65;;
81229;SDS011;70701;44.452;18.652;2023-07-02T05:56:15;16.55;;;9.43;;
81229;SDS011;70701;44.452;18.652;2023-07-02T05:58:40;15.63;;;9.32;;
81229;SDS011;70701;44.452;18.652;2023-07-02T06:01:06;15.60;;;9.55;;
81229;SDS011;70701;44.452;18.652;2023-07-02T06:03:32;15.25;;;9.70;;
81229;SDS011;70701;44.452;18.652;2023-07-02T06:05:58;19.60;;;10.30;;
81229;SDS011;70701;44.452;18.652;2023-07-02T06:08:23;15.07;;;9.45;;
81229;SDS011;70701;44.452;18.652;2023-07-02T06:10:49;16.13;;;9.80;;
81229;SDS011;70701;44.452;18.652;2023-07-02T06:13:15;19.13;;;10.48;;
81229;SDS011;70701;44.452;18.652;2023-07-02T06:15:41;14.68;;;8.80;;
81229;SDS011;70701;44.452;18.652;2023-07-02T06:18:07;15.88;;;9.52;;
81229;SDS011;70701;44.452;18.652;2023-07-02T06:20:33;15.45;;;9.05;;
81229;SDS011;70701;44.452;18.652;2023-07-02T06:22:58;14.00;;;8.73;;
81229;SDS011;70701;44.452;18.652;2023-07-02T06:25:24;15.05;;;9.02;;
81229;SDS011;70701;44.452;18.652;2023-07-02T06:27:50;13.98;;;8.82;;
81229;SDS011;70701;44.452;18.652;2023-07-02T06:30:15;13.18;;;8.23;;
81229;SDS011;70701;44.452;18.652;2023-07-02T06:32:41;16.52;;;9.32;;
81229;SDS011;70701;44.452;18.652;2023-07-02T06:35:07;13.65;;;7.93;;
81229;SDS011;70701;44.452;18.652;2023-07-02T06:37:33;12.70;;;8.52;;
81229;SDS011;70701;44.452;18.652;2023-07-02T06:39:58;14.25;;;9.63;;
81229;SDS011;70701;44.452;18.652;2023-07-02T06:42:25;14.07;;;8.55;;
81229;SDS011;70701;44.452;18.652;2023-07-02T06:44:50;12.75;;;7.50;;
81229;SDS011;70701;44.452;18.652;2023-07-02T06:47:16;11.65;;;7.85;;
81229;SDS011;70701;44.452;18.652;2023-07-02T06:49:42;13.32;;;8.60;;
81229;SDS011;70701;44.452;18.652;2023-07-02T06:52:07;14.40;;;8.27;;
81229;SDS011;70701;44.452;18.652;2023-07-02T06:54:33;14.80;;;9.13;;
81229;SDS011;70701;44.452;18.652;2023-07-02T06:56:59;15.23;;;8.27;;
81229;SDS011;70701;44.452;18.652;2023-07-02T06:59:25;13.38;;;8.70;;
81229;SDS011;70701;44.452;18.652;2023-07-02T07:01:52;12.23;;;8.00;;
81229;SDS011;70701;44.452;18.652;2023-07-02T07:04:17;13.15;;;7.82;;
81229;SDS011;70701;44.452;18.652;2023-07-02T07:06:43;11.52;;;8.43;;
81229;SDS011;70701;44.452;18.652;2023-07-02T07:09:09;12.73;;;8.25;;
81229;SDS011;70701;44.452;18.652;2023-07-02T07:11:35;12.27;;;7.28;;
81229;SDS011;70701;44.452;18.652;2023-07-02T07:14:00;13.13;;;8.25;;
81229;SDS011;70701;44.452;18.652;2023-07-02T07:16:26;12.73;;;8.20;;
81229;SDS011;70701;44.452;18.652;2023-07-02T07:18:52;14.32;;;8.38;;
81229;SDS011;70701;44.452;18.652;2023-07-02T07:21:17;13.23;;;8.15;;
81229;SDS011;70701;44.452;18.652;2023-07-02T07:23:43;13.18;;;8.40;;
81229;SDS011;70701;44.452;18.652;2023-07-02T07:26:08;15.27;;;9.77;;
81229;SDS011;70701;44.452;18.652;2023-07-02T07:28:34;11.45;;;8.15;;
81229;SDS011;70701;44.452;18.652;2023-07-02T07:31:00;18.00;;;9.48;;
81229;SDS011;70701;44.452;18.652;2023-07-02T07:33:26;13.70;;;8.68;;
81229;SDS011;70701;44.452;18.652;2023-07-02T07:35:52;13.70;;;8.90;;
81229;SDS011;70701;44.452;18.652;2023-07-02T07:38:17;15.77;;;9.95;;
81229;SDS011;70701;44.452;18.652;2023-07-02T07:40:43;14.23;;;9.32;;
81229;SDS011;70701;44.452;18.652;2023-07-02T07:43:09;14.00;;;9.68;;
81229;SDS011;70701;44.452;18.652;2023-07-02T07:45:34;16.30;;;11.30;;
81229;SDS011;70701;44.452;18.652;2023-07-02T07:48:00;16.77;;;10.77;;
81229;SDS011;70701;44.452;18.652;2023-07-02T07:50:26;14.68;;;10.07;;
81229;SDS011;70701;44.452;18.652;2023-07-02T07:52:52;10.88;;;8.18;;
81229;SDS011;70701;44.452;18.652;2023-07-02T07:55:17;13.02;;;8.88;;
81229;SDS011;70701;44.452;18.652;2023-07-02T07:57:43;10.52;;;8.18;;
81229;SDS011;70701;44.452;18.652;2023-07-02T08:00:09;12.68;;;8.32;;
81229;SDS011;70701;44.452;18.652;2023-07-02T08:02:47;18.08;;;12.82;;
81229;SDS011;70701;44.452;18.652;2023-07-02T08:05:14;15.02;;;9.82;;
81229;SDS011;70701;44.452;18.652;2023-07-02T08:07:39;15.18;;;10.00;;
81229;SDS011;70701;44.452;18.652;2023-07-02T08:10:08;13.35;;;9.93;;
81229;SDS011;70701;44.452;18.652;2023-07-02T08:12:39;12.35;;;8.13;;
81229;SDS011;70701;44.452;18.652;2023-07-02T08:15:05;9.93;;;7.07;;
81229;SDS011;70701;44.452;18.652;2023-07-02T08:17:32;13.98;;;8.18;;
81229;SDS011;70701;44.452;18.652;2023-07-02T08:19:59;17.70;;;13.88;;
81229;SDS011;70701;44.452;18.652;2023-07-02T08:22:25;13.40;;;9.02;;
81229;SDS011;70701;44.452;18.652;2023-07-02T08:24:51;16.25;;;13.27;;
81229;SDS011;70701;44.452;18.652;2023-07-02T08:27:25;35.35;;;29.70;;
81229;SDS011;70701;44.452;18.652;2023-07-02T08:29:55;31.42;;;24.77;;
81229;SDS011;70701;44.452;18.652;2023-07-02T08:32:20;23.92;;;19.95;;
81229;SDS011;70701;44.452;18.652;2023-07-02T08:34:46;19.67;;;15.75;;
81229;SDS011;70701;44.452;18.652;2023-07-02T08:37:12;14.95;;;12.48;;
81229;SDS011;70701;44.452;18.652;2023-07-02T08:39:38;16.85;;;13.35;;
81229;SDS011;70701;44.452;18.652;2023-07-02T08:42:07;17.92;;;13.30;;
81229;SDS011;70701;44.452;18.652;2023-07-02T08:44:35;13.43;;;11.20;;
81229;SDS011;70701;44.452;18.652;2023-07-02T08:47:01;18.65;;;14.85;;
81229;SDS011;70701;44.452;18.652;2023-07-02T08:49:27;16.77;;;12.48;;
81229;SDS011;70701;44.452;18.652;2023-07-02T08:51:53;14.02;;;10.65;;
81229;SDS011;70701;44.452;18.652;2023-07-02T08:54:19;44.17;;;37.42;;
81229;SDS011;70701;44.452;18.652;2023-07-02T08:56:45;23.15;;;19.80;;
81229;SDS011;70701;44.452;18.652;2023-07-02T08:59:12;20.48;;;14.82;;
81229;SDS011;70701;44.452;18.652;2023-07-02T09:01:50;30.45;;;25.10;;
81229;SDS011;70701;44.452;18.652;2023-07-02T09:07:11;23.13;;;18.95;;
81229;SDS011;70701;44.452;18.652;2023-07-02T09:09:47;23.23;;;19.13;;
81229;SDS011;70701;44.452;18.652;2023-07-02T09:12:29;16.45;;;13.13;;
81229;SDS011;70701;44.452;18.652;2023-07-02T09:14:58;16.65;;;13.30;;
81229;SDS011;70701;44.452;18.652;2023-07-02T09:17:31;14.60;;;11.68;;
81229;SDS011;70701;44.452;18.652;2023-07-02T09:20:32;16.35;;;13.85;;
81229;SDS011;70701;44.452;18.652;2023-07-02T09:22:58;19.85;;;16.02;;
81229;SDS011;70701;44.452;18.652;2023-07-02T09:25:33;19.98;;;15.43;;
81229;SDS011;70701;44.452;18.652;2023-07-02T09:28:01;24.23;;;17.35;;
81229;SDS011;70701;44.452;18.652;2023-07-02T09:30:29;29.85;;;22.55;;
81229;SDS011;70701;44.452;18.652;2023-07-02T09:33:07;30.20;;;23.45;;
81229;SDS011;70701;44.452;18.652;2023-07-02T09:35:34;32.90;;;24.27;;
81229;SDS011;70701;44.452;18.652;2023-07-02T09:38:00;18.13;;;14.25;;
81229;SDS011;70701;44.452;18.652;2023-07-02T09:40:26;14.30;;;11.02;;
81229;SDS011;70701;44.452;18.652;2023-07-02T09:42:56;16.48;;;12.32;;
81229;SDS011;70701;44.452;18.652;2023-07-02T09:45:23;15.65;;;11.40;;
81229;SDS011;70701;44.452;18.652;2023-07-02T09:47:49;19.52;;;15.07;;
81229;SDS011;70701;44.452;18.652;2023-07-02T09:50:17;17.55;;;13.95;;
81229;SDS011;70701;44.452;18.652;2023-07-02T09:52:44;22.05;;;15.40;;
81229;SDS011;70701;44.452;18.652;2023-07-02T09:55:11;23.30;;;13.43;;
81229;SDS011;70701;44.452;18.652;2023-07-02T09:57:37;22.95;;;18.02;;
81229;SDS011;70701;44.452;18.652;2023-07-02T10:00:07;18.75;;;13.93;;
81229;SDS011;70701;44.452;18.652;2023-07-02T10:02:37;19.98;;;16.10;;
81229;SDS011;70701;44.452;18.652;2023-07-02T10:05:07;19.15;;;11.93;;
81229;SDS011;70701;44.452;18.652;2023-07-02T10:07:53;14.50;;;11.38;;
81229;SDS011;70701;44.452;18.652;2023-07-02T10:10:25;15.55;;;11.93;;
81229;SDS011;70701;44.452;18.652;2023-07-02T10:13:11;13.25;;;10.40;;
81229;SDS011;70701;44.452;18.652;2023-07-02T10:15:37;15.25;;;10.95;;
81229;SDS011;70701;44.452;18.652;2023-07-02T10:18:04;13.73;;;10.52;;
81229;SDS011;70701;44.452;18.652;2023-07-02T10:23:04;14.80;;;10.73;;
81229;SDS011;70701;44.452;18.652;2023-07-02T10:25:32;15.15;;;11.25;;
81229;SDS011;70701;44.452;18.652;2023-07-02T10:28:00;15.10;;;11.57;;
81229;SDS011;70701;44.452;18.652;2023-07-02T10:30:31;12.55;;;10.90;;
81229;SDS011;70701;44.452;18.652;2023-07-02T10:33:16;17.48;;;13.25;;
81229;SDS011;70701;44.452;18.652;2023-07-02T10:35:43;16.98;;;11.45;;
81229;SDS011;70701;44.452;18.652;2023-07-02T10:38:14;30.15;;;25.67;;
81229;SDS011;70701;44.452;18.652;2023-07-02T10:40:41;19.10;;;16.48;;
81229;SDS011;70701;44.452;18.652;2023-07-02T10:43:08;12.63;;;11.18;;
81229;SDS011;70701;44.452;18.652;2023-07-02T10:45:34;19.15;;;16.48;;
81229;SDS011;70701;44.452;18.652;2023-07-02T10:48:03;24.80;;;19.35;;
81229;SDS011;70701;44.452;18.652;2023-07-02T10:50:40;24.95;;;19.85;;
81229;SDS011;70701;44.452;18.652;2023-07-02T10:53:06;18.98;;;15.60;;
81229;SDS011;70701;44.452;18.652;2023-07-02T10:55:39;20.60;;;15.67;;
81229;SDS011;70701;44.452;18.652;2023-07-02T10:58:08;16.95;;;12.90;;
81229;SDS011;70701;44.452;18.652;2023-07-02T11:00:48;14.48;;;11.65;;
81229;SDS011;70701;44.452;18.652;2023-07-02T11:03:24;15.68;;;12.15;;
81229;SDS011;70701;44.452;18.652;2023-07-02T11:05:51;14.77;;;11.38;;
81229;SDS011;70701;44.452;18.652;2023-07-02T11:08:17;14.73;;;11.82;;
81229;SDS011;70701;44.452;18.652;2023-07-02T11:10:43;14.20;;;11.45;;
81229;SDS011;70701;44.452;18.652;2023-07-02T11:13:16;13.98;;;11.85;;
81229;SDS011;70701;44.452;18.652;2023-07-02T11:18:17;13.10;;;10.90;;
81229;SDS011;70701;44.452;18.652;2023-07-02T11:20:46;17.92;;;13.60;;
81229;SDS011;70701;44.452;18.652;2023-07-02T11:23:18;18.63;;;15.57;;
81229;SDS011;70701;44.452;18.652;2023-07-02T11:25:57;24.35;;;20.42;;
81229;SDS011;70701;44.452;18.652;2023-07-02T11:28:25;24.23;;;20.17;;
81229;SDS011;70701;44.452;18.652;2023-07-02T11:30:55;22.98;;;18.73;;
81229;SDS011;70701;44.452;18.652;2023-07-02T11:33:32;22.27;;;18.35;;
81229;SDS011;70701;44.452;18.652;2023-07-02T11:36:05;22.80;;;19.77;;
81229;SDS011;70701;44.452;18.652;2023-07-02T11:38:32;20.08;;;17.70;;
81229;SDS011;70701;44.452;18.652;2023-07-02T11:40:58;23.85;;;18.02;;
81229;SDS011;70701;44.452;18.652;2023-07-02T11:43:25;22.63;;;18.90;;
81229;SDS011;70701;44.452;18.652;2023-07-02T11:45:51;22.23;;;17.02;;
81229;SDS011;70701;44.452;18.652;2023-07-02T11:48:17;19.95;;;17.75;;
81229;SDS011;70701;44.452;18.652;2023-07-02T11:50:43;24.65;;;20.60;;
81229;SDS011;70701;44.452;18.652;2023-07-02T11:53:11;18.10;;;14.63;;
81229;SDS011;70701;44.452;18.652;2023-07-02T11:55:37;17.92;;;14.63;;
81229;SDS011;70701;44.452;18.652;2023-07-02T11:58:02;22.75;;;19.23;;
81229;SDS011;70701;44.452;18.652;2023-07-02T12:00:28;16.48;;;12.38;;
81229;SDS011;70701;44.452;18.652;2023-07-02T12:02:54;13.70;;;10.43;;
81229;SDS011;70701;44.452;18.652;2023-07-02T12:05:22;15.75;;;10.48;;
81229;SDS011;70701;44.452;18.652;2023-07-02T12:07:48;12.60;;;10.77;;
81229;SDS011;70701;44.452;18.652;2023-07-02T12:10:13;11.75;;;9.43;;
81229;SDS011;70701;44.452;18.652;2023-07-02T12:12:44;12.55;;;10.05;;
81229;SDS011;70701;44.452;18.652;2023-07-02T12:15:10;12.85;;;10.65;;
81229;SDS011;70701;44.452;18.652;2023-07-02T12:17:36;11.95;;;9.27;;
81229;SDS011;70701;44.452;18.652;2023-07-02T12:20:04;12.30;;;9.70;;
81229;SDS011;70701;44.452;18.652;2023-07-02T12:22:30;11.90;;;9.98;;
81229;SDS011;70701;44.452;18.652;2023-07-02T12:24:59;13.88;;;10.43;;
81229;SDS011;70701;44.452;18.652;2023-07-02T12:27:26;16.98;;;11.88;;
81229;SDS011;70701;44.452;18.652;2023-07-02T12:29:52;11.48;;;9.02;;
81229;SDS011;70701;44.452;18.652;2023-07-02T12:32:18;13.52;;;9.20;;
81229;SDS011;70701;44.452;18.652;2023-07-02T12:34:43;10.70;;;8.30;;
81229;SDS011;70701;44.452;18.652;2023-07-02T12:37:09;11.10;;;8.90;;
81229;SDS011;70701;44.452;18.652;2023-07-02T12:39:35;10.73;;;8.68;;
81229;SDS011;70701;44.452;18.652;2023-07-02T12:42:01;10.82;;;8.52;;
81229;SDS011;70701;44.452;18.652;2023-07-02T12:44:26;12.80;;;10.05;;
81229;SDS011;70701;44.452;18.652;2023-07-02T12:46:52;13.00;;;10.45;;
81229;SDS011;70701;44.452;18.652;2023-07-02T12:49:18;12.25;;;10.20;;
81229;SDS011;70701;44.452;18.652;2023-07-02T12:51:43;14.23;;;11.43;;
81229;SDS011;70701;44.452;18.652;2023-07-02T12:54:09;13.30;;;10.77;;
81229;SDS011;70701;44.452;18.652;2023-07-02T12:56:39;17.80;;;14.68;;
81229;SDS011;70701;44.452;18.652;2023-07-02T12:59:05;20.10;;;14.18;;
81229;SDS011;70701;44.452;18.652;2023-07-02T13:01:34;21.50;;;15.18;;
81229;SDS011;70701;44.452;18.652;2023-07-02T13:04:00;22.23;;;16.60;;
81229;SDS011;70701;44.452;18.652;2023-07-02T13:06:27;24.27;;;16.92;;
81229;SDS011;70701;44.452;18.652;2023-07-02T13:08:53;24.95;;;18.77;;
81229;SDS011;70701;44.452;18.652;2023-07-02T13:11:20;29.45;;;18.42;;
81229;SDS011;70701;44.452;18.652;2023-07-02T13:13:46;33.20;;;23.63;;
81229;SDS011;70701;44.452;18.652;2023-07-02T13:16:12;32.50;;;21.77;;
81229;SDS011;70701;44.452;18.652;2023-07-02T13:18:38;32.70;;;22.50;;
81229;SDS011;70701;44.452;18.652;2023-07-02T13:21:07;30.52;;;19.83;;
81229;SDS011;70701;44.452;18.652;2023-07-02T13:23:32;24.08;;;16.40;;
81229;SDS011;70701;44.452;18.652;2023-07-02T13:25:59;22.45;;;16.05;;
81229;SDS011;70701;44.452;18.652;2023-07-02T13:28:24;21.92;;;14.65;;
81229;SDS011;70701;44.452;18.652;2023-07-02T13:30:53;21.90;;;16.48;;
81229;SDS011;70701;44.452;18.652;2023-07-02T13:33:18;19.83;;;16.17;;
81229;SDS011;70701;44.452;18.652;2023-07-02T13:35:44;24.30;;;18.52;;
81229;SDS011;70701;44.452;18.652;2023-07-02T13:38:11;22.33;;;18.15;;
81229;SDS011;70701;44.452;18.652;2023-07-02T13:40:36;23.23;;;17.45;;
81229;SDS011;70701;44.452;18.652;2023-07-02T13:43:02;25.58;;;19.25;;
81229;SDS011;70701;44.452;18.652;2023-07-02T13:45:28;23.23;;;19.10;;
81229;SDS011;70701;44.452;18.652;2023-07-02T13:47:54;33.38;;;25.17;;
81229;SDS011;70701;44.452;18.652;2023-07-02T13:50:19;20.52;;;16.15;;
81229;SDS011;70701;44.452;18.652;2023-07-02T13:52:45;16.83;;;12.77;;
81229;SDS011;70701;44.452;18.652;2023-07-02T13:55:14;15.15;;;9.77;;
81229;SDS011;70701;44.452;18.652;2023-07-02T13:57:53;14.00;;;8.82;;
81229;SDS011;70701;44.452;18.652;2023-07-02T14:00:21;14.48;;;9.70;;
81229;SDS011;70701;44.452;18.652;2023-07-02T14:02:46;15.60;;;11.77;;
81229;SDS011;70701;44.452;18.652;2023-07-02T14:05:15;19.05;;;15.55;;
81229;SDS011;70701;44.452;18.652;2023-07-02T14:07:40;12.93;;;9.65;;
81229;SDS011;70701;44.452;18.652;2023-07-02T14:10:09;13.15;;;9.68;;
81229;SDS011;70701;44.452;18.652;2023-07-02T14:12:39;13.43;;;10.13;;
81229;SDS011;70701;44.452;18.652;2023-07-02T14:15:05;14.05;;;10.15;;
81229;SDS011;70701;44.452;18.652;2023-07-02T14:17:31;14.05;;;11.20;;
81229;SDS011;70701;44.452;18.652;2023-07-02T14:19:57;13.70;;;10.60;;
81229;SDS011;70701;44.452;18.652;2023-07-02T14:22:23;13.73;;;10.38;;
81229;SDS011;70701;44.452;18.652;2023-07-02T14:24:48;15.07;;;11.13;;
81229;SDS011;70701;44.452;18.652;2023-07-02T14:27:14;15.57;;;12.80;;